Archival Weather

Chicago O'Hare International

Chicago, Illinois (KORD)

Report from: Thursday, June 23, 2022 11:51 PM CDT
Current time: Tuesday, August 16, 2022 2:11 AM CDT

Current weather
Weather history
Weather forecast

Temperature21.7°C (71.1°F)
Dew point9.4°C (48.9°F)
Winds 3 kts (1.5 m/s, 3.5 mph) South-Southeast (160°)
Visibility10 mi. (16.1 km)
Clouds Sky clear
Altimeter30.00 in.Hg (1016 mB)
Relative humidity45 %
Density altitude860 ft. (262 m)
Sea-level pressure101.6 kPa (1016 mB, 29.99 in.Hg)
Remarks Automated weather observing station with precipitation discriminator
Flight conditions Visual Meteorological Conditions
Raw dataKORD 240451Z 16003KT 10SM CLR 22/09 A3000 RMK AO2 SLP156 T02170094
An error has occurred. This application may no longer respond until reloaded. Reload 🗙